Lacona, New York
Current Conditions -  °F | °C
As of 10:56 PM on Friday 24 Oct 2014 (Local Time) from KART Reporting Station
Clear Clear  
Wind Chill: 46°   Ceiling: Unl
Heat Index: 48°   Visibility: 9mi
Dew Point: 42°   Wind: 5mph
Humidity: 80%   Direction: 180°S
Pressure: 29.87"   Gusts: NA
Location:  43.64°N, 76.07°W
Report Text: KART 250256Z AUTO 18004KT 9SM CLR 09/06 A2987 RMK AO2 SLP115 T00890056 58003
Loading
Personal Weather Stations






























Interactive Weather Map
Tropical Storm Tracking
New forecast layout! Learn more

10-Day Weather Forecast

Advertisements
Track Severe Weather on mobile